createdAt,value
2019-03-21T00:01:20.414Z,97.70
2019-03-21T00:03:50.991Z,97.70
2019-03-21T00:06:21.368Z,97.80
2019-03-21T00:08:50.490Z,97.90
2019-03-21T00:11:59.596Z,98.00
2019-03-21T00:14:46.819Z,98.10
2019-03-21T00:17:18.883Z,98.30
2019-03-21T00:19:47.869Z,98.40
2019-03-21T00:22:17.705Z,98.70
2019-03-21T00:24:46.596Z,98.70
2019-03-21T00:27:15.565Z,98.70
2019-03-21T00:29:45.498Z,98.70
2019-03-21T00:32:14.471Z,98.70
2019-03-21T00:34:43.358Z,98.80
2019-03-21T00:37:14.822Z,99.00
2019-03-21T00:39:47.237Z,99.20
2019-03-21T00:42:21.181Z,99.30
2019-03-21T00:44:51.024Z,99.40
2019-03-21T00:47:19.992Z,99.40
2019-03-21T00:49:48.985Z,99.60
2019-03-21T00:52:20.290Z,99.80
2019-03-21T00:54:53.545Z,99.80
2019-03-21T00:57:20.688Z,99.80
2019-03-21T00:59:49.666Z,99.90
2019-03-21T01:02:25.940Z,99.90
2019-03-21T01:04:54.923Z,99.80
2019-03-21T01:07:23.809Z,99.90
2019-03-21T01:09:52.752Z,99.90
2019-03-21T01:12:25.885Z,99.90
2019-03-21T01:14:55.872Z,99.90
2019-03-21T01:17:24.793Z,99.90
2019-03-21T01:19:53.785Z,99.90
2019-03-21T01:22:22.675Z,99.90
2019-03-21T01:24:52.584Z,99.90
2019-03-21T01:27:25.427Z,99.90
2019-03-21T01:29:54.364Z,99.90
2019-03-21T01:32:24.261Z,99.90
2019-03-21T01:34:55.728Z,99.90
2019-03-21T01:37:24.823Z,99.90
2019-03-21T01:39:53.809Z,99.90
2019-03-21T01:42:24.549Z,99.90
2019-03-21T01:44:53.126Z,99.90
2019-03-21T01:47:25.876Z,99.90
2019-03-21T01:49:54.798Z,99.90
2019-03-21T01:52:23.788Z,99.90
2019-03-21T01:54:53.718Z,99.90
2019-03-21T01:57:22.593Z,99.90
2019-03-21T01:59:51.490Z,99.90
2019-03-21T02:02:20.588Z,99.90
2019-03-21T02:04:49.399Z,99.90
2019-03-21T02:07:18.358Z,99.90
2019-03-21T02:09:51.345Z,99.90
2019-03-21T02:12:22.790Z,99.90
2019-03-21T02:14:52.516Z,99.90
2019-03-21T02:17:21.693Z,99.90
2019-03-21T02:19:50.583Z,99.90
2019-03-21T02:22:19.576Z,99.90
2019-03-21T02:24:48.778Z,99.90
2019-03-21T02:27:22.671Z,99.90
2019-03-21T02:29:52.695Z,99.90
2019-03-21T02:32:21.588Z,99.90
2019-03-21T02:34:50.354Z,99.90
2019-03-21T02:37:19.267Z,99.90
2019-03-21T02:39:59.376Z,99.90
2019-03-21T02:42:22.470Z,99.90
2019-03-21T02:44:51.462Z,99.90
2019-03-21T02:47:20.459Z,99.90
2019-03-21T02:49:49.342Z,99.90
2019-03-21T02:52:18.354Z,99.90
2019-03-21T02:54:48.402Z,99.90
2019-03-21T02:57:17.355Z,99.90
2019-03-21T02:59:46.334Z,99.90
2019-03-21T03:02:15.225Z,99.90
2019-03-21T03:04:44.216Z,99.90
2019-03-21T03:07:14.128Z,99.90
2019-03-21T03:09:43.021Z,99.90
2019-03-21T03:12:15.511Z,99.90
2019-03-21T03:14:54.233Z,99.90
2019-03-21T03:17:23.207Z,99.90
2019-03-21T03:19:53.094Z,99.90
2019-03-21T03:22:22.942Z,99.90
2019-03-21T03:24:55.813Z,99.90
2019-03-21T03:27:24.805Z,99.90
2019-03-21T03:29:53.727Z,99.90
2019-03-21T03:32:35.847Z,99.90
2019-03-21T03:34:56.602Z,99.90
2019-03-21T03:37:26.615Z,99.90
2019-03-21T03:39:55.504Z,99.90
2019-03-21T03:42:26.869Z,99.90
2019-03-21T03:44:56.880Z,99.90
2019-03-21T03:47:31.600Z,99.90
2019-03-21T03:50:06.734Z,99.90
2019-03-21T03:52:35.002Z,99.90
2019-03-21T03:55:07.660Z,99.90
2019-03-21T03:57:40.360Z,99.90
2019-03-21T04:00:12.423Z,99.90
2019-03-21T04:02:41.316Z,99.90
2019-03-21T04:05:12.109Z,99.90
2019-03-21T04:07:42.263Z,99.90
2019-03-21T04:10:17.265Z,99.90
2019-03-21T04:12:46.188Z,99.90
2019-03-21T04:15:22.693Z,99.90
2019-03-21T04:17:51.455Z,99.90
2019-03-21T04:20:23.368Z,99.90
2019-03-21T04:22:54.549Z,99.90
2019-03-21T04:25:48.474Z,99.90
2019-03-21T04:28:17.542Z,99.90
2019-03-21T04:30:47.522Z,99.90
2019-03-21T04:33:16.521Z,99.90
2019-03-21T04:35:45.415Z,99.90
2019-03-21T04:38:16.353Z,99.90
2019-03-21T04:40:45.241Z,99.90
2019-03-21T04:43:14.229Z,99.90
2019-03-21T04:45:43.120Z,99.90
2019-03-21T04:48:14.894Z,99.90
2019-03-21T04:50:42.972Z,99.90
2019-03-21T04:53:21.288Z,99.90
2019-03-21T04:55:50.251Z,99.90
2019-03-21T04:58:19.958Z,99.90
2019-03-21T05:00:56.539Z,99.90
2019-03-21T05:03:33.104Z,99.90
2019-03-21T05:06:06.998Z,99.90
2019-03-21T05:08:35.896Z,99.90
2019-03-21T05:11:04.802Z,99.90
2019-03-21T05:13:34.801Z,99.90
2019-03-21T05:16:14.056Z,99.90
2019-03-21T05:18:52.556Z,99.90
2019-03-21T05:21:24.962Z,99.90
2019-03-21T05:23:54.907Z,99.90
2019-03-21T05:26:23.824Z,99.80
2019-03-21T05:28:52.714Z,99.40
2019-03-21T05:31:38.923Z,99.40
2019-03-21T05:34:07.821Z,99.50
2019-03-21T05:36:36.794Z,99.30
2019-03-21T05:39:08.546Z,99.40
2019-03-21T05:41:40.840Z,99.10
2019-03-21T05:44:22.716Z,98.70
2019-03-21T05:46:51.712Z,98.70
2019-03-21T05:49:20.594Z,98.30
2019-03-21T05:51:49.486Z,98.00
2019-03-21T05:54:18.477Z,97.50
2019-03-21T05:56:47.367Z,97.40
2019-03-21T05:59:18.821Z,97.10
2019-03-21T06:01:51.511Z,96.30
2019-03-21T06:04:20.480Z,95.90
2019-03-21T06:06:58.238Z,95.40
2019-03-21T06:09:30.968Z,95.10
2019-03-21T06:12:04.500Z,94.90
2019-03-21T06:14:42.484Z,94.40
2019-03-21T06:17:15.225Z,94.00
2019-03-21T06:19:58.860Z,93.90
2019-03-21T06:22:45.791Z,93.70
2019-03-21T06:25:20.275Z,93.90
2019-03-21T06:27:49.203Z,93.90
2019-03-21T06:30:18.103Z,93.80
2019-03-21T06:32:47.092Z,93.70
2019-03-21T06:35:26.006Z,93.60
2019-03-21T06:37:54.997Z,93.70
2019-03-21T06:40:26.550Z,93.50
2019-03-21T06:42:57.807Z,93.50
2019-03-21T06:45:30.904Z,93.30
2019-03-21T06:47:59.725Z,93.20
2019-03-21T06:50:28.662Z,92.90
2019-03-21T06:52:57.552Z,92.80
2019-03-21T06:55:26.548Z,92.50
2019-03-21T06:57:58.333Z,92.30
2019-03-21T07:00:29.575Z,92.40
2019-03-21T07:02:59.668Z,92.00
2019-03-21T07:05:32.433Z,91.60
2019-03-21T07:08:02.257Z,91.40
2019-03-21T07:10:33.909Z,91.40
2019-03-21T07:13:05.378Z,91.40
2019-03-21T07:15:34.247Z,91.40
2019-03-21T07:18:03.143Z,90.70
2019-03-21T07:20:32.130Z,90.80
2019-03-21T07:23:01.020Z,90.60
2019-03-21T07:25:33.255Z,90.60
2019-03-21T07:28:04.753Z,90.50
2019-03-21T07:30:33.730Z,90.70
2019-03-21T07:33:02.621Z,90.90
2019-03-21T07:35:31.509Z,91.10
2019-03-21T07:38:00.399Z,91.20
2019-03-21T07:40:31.722Z,91.40
2019-03-21T07:42:59.820Z,91.10
2019-03-21T07:45:28.706Z,91.30
2019-03-21T07:48:00.464Z,91.10
2019-03-21T07:50:29.263Z,91.20
2019-03-21T07:52:58.158Z,91.00
2019-03-21T07:55:28.998Z,90.70
2019-03-21T07:58:02.802Z,90.60
2019-03-21T08:00:32.693Z,90.50
2019-03-21T08:03:12.033Z,90.20
2019-03-21T08:05:46.960Z,90.30
2019-03-21T08:08:22.811Z,90.40
2019-03-21T08:10:55.750Z,90.60
2019-03-21T08:13:24.690Z,90.20
2019-03-21T08:15:57.582Z,90.00
2019-03-21T08:18:29.634Z,89.50
2019-03-21T08:21:01.062Z,89.40
2019-03-21T08:23:29.881Z,89.80
2019-03-21T08:26:02.741Z,89.00
2019-03-21T08:28:36.669Z,88.80
2019-03-21T08:31:08.726Z,88.10
2019-03-21T08:33:37.615Z,88.10
2019-03-21T08:36:06.503Z,87.80
2019-03-21T08:38:35.498Z,87.90
2019-03-21T08:41:04.598Z,87.00
2019-03-21T08:43:36.062Z,87.70
2019-03-21T08:46:06.055Z,87.50
2019-03-21T08:48:41.778Z,86.60
2019-03-21T08:51:17.800Z,86.10
2019-03-21T08:53:46.699Z,85.20
2019-03-21T08:56:15.647Z,86.20
2019-03-21T08:58:47.912Z,85.50
2019-03-21T09:01:16.800Z,84.90
2019-03-21T09:06:14.379Z,83.40
2019-03-21T09:08:47.572Z,82.80
2019-03-21T09:11:16.561Z,82.00
2019-03-21T09:13:48.940Z,80.60
2019-03-21T09:16:25.408Z,80.20
2019-03-21T09:18:57.565Z,80.70
2019-03-21T09:21:33.960Z,79.80
2019-03-21T09:24:02.818Z,77.90
2019-03-21T09:26:31.762Z,76.30
2019-03-21T09:29:00.699Z,76.20
2019-03-21T09:31:37.067Z,76.00
2019-03-21T09:34:05.955Z,74.80
2019-03-21T09:36:34.988Z,74.80
2019-03-21T09:39:06.845Z,75.40
2019-03-21T09:41:37.889Z,76.80
2019-03-21T09:44:07.821Z,76.10
2019-03-21T09:46:36.751Z,75.90
2019-03-21T09:49:07.733Z,77.00
2019-03-21T09:51:38.726Z,75.60
2019-03-21T09:54:11.294Z,75.90
2019-03-21T09:56:40.204Z,75.70
2019-03-21T09:59:09.084Z,76.20
2019-03-21T10:01:40.386Z,75.50
2019-03-21T10:04:09.346Z,76.60
2019-03-21T10:06:38.210Z,76.40
2019-03-21T10:09:08.196Z,74.90
2019-03-21T10:11:37.117Z,74.50
2019-03-21T10:14:09.023Z,74.30
2019-03-21T10:16:36.635Z,73.40
2019-03-21T10:19:06.649Z,72.10
2019-03-21T10:21:43.256Z,72.30
2019-03-21T10:24:08.637Z,71.90
2019-03-21T10:26:37.516Z,72.20
2019-03-21T10:29:06.419Z,72.10
2019-03-21T10:31:35.294Z,72.00
2019-03-21T10:34:04.185Z,71.10
2019-03-21T10:36:36.652Z,70.40
2019-03-21T10:39:06.797Z,70.10
2019-03-21T10:41:40.564Z,71.00
2019-03-21T10:44:09.576Z,70.40
2019-03-21T10:46:38.471Z,69.90
2019-03-21T10:49:11.453Z,70.50
2019-03-21T10:51:40.340Z,71.40
2019-03-21T10:54:09.348Z,71.80
2019-03-21T10:56:41.885Z,72.40
2019-03-21T10:59:11.822Z,71.20
2019-03-21T11:04:09.377Z,68.50
2019-03-21T11:06:49.026Z,69.40
2019-03-21T11:09:18.951Z,68.40
2019-03-21T11:11:47.942Z,67.60
2019-03-21T11:14:20.824Z,67.40
2019-03-21T11:16:49.717Z,67.70
2019-03-21T11:19:21.095Z,67.20
2019-03-21T11:22:05.700Z,66.80
2019-03-21T11:24:26.015Z,67.30
2019-03-21T11:26:56.024Z,66.60
2019-03-21T11:29:24.921Z,66.30
2019-03-21T11:31:56.826Z,64.80
2019-03-21T11:34:25.360Z,65.00
2019-03-21T11:36:54.351Z,65.30
2019-03-21T11:39:25.902Z,65.00
2019-03-21T11:41:57.412Z,65.20
2019-03-21T11:44:26.354Z,65.20
2019-03-21T11:46:55.347Z,65.70
2019-03-21T11:49:24.225Z,65.60
2019-03-21T11:51:53.118Z,65.90
2019-03-21T11:54:22.165Z,67.00
2019-03-21T11:56:51.104Z,66.90
2019-03-21T11:59:20.096Z,67.80
2019-03-21T12:01:49.962Z,69.00
2019-03-21T12:04:19.011Z,70.00
2019-03-21T12:06:47.888Z,72.40
2019-03-21T12:09:16.773Z,73.00
2019-03-21T12:11:45.662Z,74.60
2019-03-21T12:14:32.079Z,74.70
2019-03-21T12:16:59.212Z,74.00
2019-03-21T12:19:33.120Z,75.30
2019-03-21T12:22:02.048Z,76.50
2019-03-21T12:24:37.380Z,76.00
2019-03-21T12:27:06.342Z,77.40
2019-03-21T12:29:35.231Z,79.50
2019-03-21T12:32:03.972Z,79.20
2019-03-21T12:34:36.502Z,81.10
2019-03-21T12:37:05.487Z,81.80
2019-03-21T12:39:34.293Z,83.10
2019-03-21T12:42:04.189Z,83.80
2019-03-21T12:44:35.736Z,83.70
2019-03-21T12:47:04.551Z,84.40
2019-03-21T12:49:38.410Z,84.50
2019-03-21T12:52:07.321Z,85.60
2019-03-21T12:54:36.213Z,86.60
2019-03-21T12:57:11.897Z,86.10
2019-03-21T12:59:39.726Z,86.40
2019-03-21T13:02:08.613Z,86.80
2019-03-21T13:04:37.381Z,86.40
2019-03-21T13:07:06.291Z,85.70
2019-03-21T13:09:35.180Z,86.70
2019-03-21T13:12:04.045Z,87.20
2019-03-21T13:14:32.899Z,87.80
2019-03-21T13:17:04.434Z,88.40
2019-03-21T13:19:33.400Z,88.70
2019-03-21T13:22:02.290Z,89.50
2019-03-21T13:24:31.386Z,90.00
2019-03-21T13:27:00.420Z,90.10
2019-03-21T13:29:29.368Z,90.40
2019-03-21T13:32:02.786Z,90.40
2019-03-21T13:34:32.710Z,90.60
2019-03-21T13:37:01.571Z,90.80
2019-03-21T13:39:31.332Z,91.00
2019-03-21T13:42:00.270Z,91.20
2019-03-21T13:44:29.169Z,91.00
2019-03-21T13:47:02.656Z,91.10
2019-03-21T13:49:34.923Z,91.10
2019-03-21T13:52:07.711Z,90.80
2019-03-21T13:54:36.593Z,91.00
2019-03-21T13:57:05.503Z,91.00
2019-03-21T13:59:34.480Z,91.00
2019-03-21T14:02:03.399Z,90.70
2019-03-21T14:04:32.274Z,90.40
2019-03-21T14:07:01.143Z,90.10
2019-03-21T14:09:31.060Z,90.10
2019-03-21T14:11:59.817Z,90.20
2019-03-21T14:14:31.108Z,90.30
2019-03-21T14:17:01.851Z,90.10
2019-03-21T14:19:30.618Z,89.90
2019-03-21T14:21:59.374Z,89.90
2019-03-21T14:24:28.290Z,90.00
2019-03-21T14:26:57.176Z,90.00
2019-03-21T14:29:30.236Z,90.10
2019-03-21T14:31:57.661Z,90.20
2019-03-21T14:34:29.169Z,90.10
2019-03-21T14:36:58.059Z,90.00
2019-03-21T14:39:31.864Z,89.90
2019-03-21T14:42:00.047Z,89.80
2019-03-21T14:44:29.033Z,89.70
2019-03-21T14:46:57.921Z,89.30
2019-03-21T14:49:28.140Z,89.70
2019-03-21T14:51:57.234Z,89.70
2019-03-21T14:54:26.129Z,89.80
2019-03-21T14:56:57.409Z,89.60
2019-03-21T14:59:26.256Z,90.20
2019-03-21T15:01:55.248Z,90.10
2019-03-21T15:04:24.140Z,90.00
2019-03-21T15:06:53.888Z,90.00
2019-03-21T15:09:22.840Z,90.10
2019-03-21T15:11:52.796Z,90.20
2019-03-21T15:14:21.742Z,90.40
2019-03-21T15:16:52.696Z,90.30
2019-03-21T15:19:22.598Z,90.20
2019-03-21T15:21:51.509Z,90.20
2019-03-21T15:24:20.489Z,90.40
2019-03-21T15:26:51.493Z,90.40
2019-03-21T15:29:19.894Z,90.50
2019-03-21T15:31:48.784Z,90.70
2019-03-21T15:34:21.769Z,90.70
2019-03-21T15:36:51.683Z,90.80
2019-03-21T15:39:20.571Z,90.70
2019-03-21T15:41:49.461Z,90.90
2019-03-21T15:44:18.352Z,91.00
2019-03-21T15:46:47.343Z,91.10
2019-03-21T15:49:16.289Z,91.10
2019-03-21T15:51:50.539Z,91.20
2019-03-21T15:54:21.674Z,91.40
2019-03-21T15:56:51.607Z,91.40
2019-03-21T15:59:23.055Z,91.30
2019-03-21T16:01:52.944Z,91.40
2019-03-21T16:04:28.309Z,91.60
2019-03-21T16:07:02.014Z,91.70
2019-03-21T16:09:30.119Z,91.80
2019-03-21T16:11:58.972Z,91.80
2019-03-21T16:14:27.981Z,92.20
2019-03-21T16:16:56.857Z,92.20
2019-03-21T16:19:25.847Z,92.10
2019-03-21T16:21:58.524Z,92.20
2019-03-21T16:24:27.515Z,92.30
2019-03-21T16:26:56.818Z,92.60
2019-03-21T16:29:25.809Z,92.90
2019-03-21T16:31:54.697Z,93.10
2019-03-21T16:34:24.712Z,93.20
2019-03-21T16:36:53.604Z,93.20
2019-03-21T16:39:22.697Z,93.20
2019-03-21T16:41:52.570Z,93.20
2019-03-21T16:44:23.137Z,93.30
2019-03-21T16:46:52.030Z,93.30
2019-03-21T16:49:21.026Z,93.30
2019-03-21T16:51:49.912Z,93.40
2019-03-21T16:54:18.685Z,93.50
2019-03-21T16:56:48.613Z,93.30
2019-03-21T16:59:17.612Z,93.50
2019-03-21T17:01:47.345Z,93.40
2019-03-21T17:04:16.303Z,93.40
2019-03-21T17:06:46.335Z,93.50
2019-03-21T17:09:15.213Z,93.40
2019-03-21T17:11:46.465Z,93.40
2019-03-21T17:14:22.527Z,93.50
2019-03-21T17:16:51.604Z,93.50
2019-03-21T17:19:21.517Z,93.70
2019-03-21T17:21:51.433Z,93.90
2019-03-21T17:24:29.169Z,94.30
2019-03-21T17:26:55.253Z,94.80
2019-03-21T17:29:24.142Z,94.80
2019-03-21T17:31:55.530Z,95.30
2019-03-21T17:34:27.984Z,95.50
2019-03-21T17:36:56.853Z,95.80
2019-03-21T17:39:25.745Z,95.90
2019-03-21T17:41:58.738Z,96.30
2019-03-21T17:44:27.721Z,96.40
2019-03-21T17:46:58.995Z,96.60
2019-03-21T17:49:28.717Z,96.70
2019-03-21T17:51:59.441Z,96.90
2019-03-21T17:54:40.641Z,97.00
2019-03-21T17:57:00.017Z,97.20
2019-03-21T17:59:32.231Z,97.30
2019-03-21T18:02:01.012Z,97.40
2019-03-21T18:04:35.820Z,97.50
2019-03-21T18:07:05.031Z,97.60
2019-03-21T18:09:34.946Z,98.00
2019-03-21T18:12:03.833Z,97.70
2019-03-21T18:14:37.541Z,97.90
2019-03-21T18:17:05.710Z,97.90
2019-03-21T18:19:34.710Z,98.00
2019-03-21T18:22:03.601Z,97.80
2019-03-21T18:24:32.481Z,97.90
2019-03-21T18:27:01.305Z,98.00
2019-03-21T18:29:30.363Z,97.90
2019-03-21T18:31:59.313Z,97.80
2019-03-21T18:34:28.260Z,97.90
2019-03-21T18:36:57.344Z,97.90
2019-03-21T18:39:26.433Z,97.80
2019-03-21T18:41:55.332Z,98.00
2019-03-21T18:44:24.212Z,98.00
2019-03-21T18:46:53.102Z,97.90
2019-03-21T18:49:25.198Z,97.90
2019-03-21T18:51:52.794Z,97.80
2019-03-21T18:54:22.850Z,98.00
2019-03-21T18:56:51.733Z,98.10
2019-03-21T18:59:20.620Z,98.10
2019-03-21T19:01:58.392Z,98.10
2019-03-21T19:04:20.038Z,98.10
2019-03-21T19:06:52.956Z,98.20
2019-03-21T19:09:24.478Z,98.00
2019-03-21T19:11:57.366Z,98.10
2019-03-21T19:14:29.829Z,98.10
2019-03-21T19:16:58.821Z,98.00
2019-03-21T19:19:27.712Z,98.20
2019-03-21T19:21:56.602Z,98.30
2019-03-21T19:24:25.356Z,98.20
2019-03-21T19:26:56.237Z,98.30
2019-03-21T19:29:25.217Z,98.30
2019-03-21T19:31:55.000Z,98.30
2019-03-21T19:34:26.380Z,98.30
2019-03-21T19:36:57.729Z,98.10
2019-03-21T19:39:26.672Z,97.90
2019-03-21T19:41:55.626Z,98.10
2019-03-21T19:44:24.597Z,98.00
2019-03-21T19:46:54.509Z,98.00
2019-03-21T19:49:23.932Z,97.90
2019-03-21T19:51:53.003Z,97.90
2019-03-21T19:54:21.894Z,97.90
2019-03-21T19:56:50.885Z,97.70
2019-03-21T19:59:19.778Z,97.80
2019-03-21T20:01:52.559Z,97.90
2019-03-21T20:04:23.828Z,97.70
2019-03-21T20:06:59.008Z,97.90
2019-03-21T20:09:27.929Z,97.70
2019-03-21T20:12:03.292Z,97.70
2019-03-21T20:14:32.165Z,97.70
2019-03-21T20:17:05.056Z,97.70
2019-03-21T20:19:34.136Z,97.90
2019-03-21T20:22:03.209Z,97.80
2019-03-21T20:24:32.184Z,97.80
2019-03-21T20:27:01.117Z,97.50
2019-03-21T20:29:30.105Z,97.70
2019-03-21T20:31:58.993Z,97.60
2019-03-21T20:34:27.883Z,97.50
2019-03-21T20:37:03.661Z,97.50
2019-03-21T20:39:30.689Z,97.30
2019-03-21T20:41:59.673Z,97.40
2019-03-21T20:44:29.688Z,97.40
2019-03-21T20:47:01.248Z,97.20
2019-03-21T20:49:30.131Z,97.20
2019-03-21T20:51:59.025Z,97.10
2019-03-21T20:54:27.908Z,97.10
2019-03-21T20:56:56.799Z,97.10
2019-03-21T20:59:25.594Z,97.10
2019-03-21T21:02:02.686Z,97.00
2019-03-21T21:04:24.902Z,97.00
2019-03-21T21:06:53.891Z,97.00
2019-03-21T21:09:25.253Z,97.20
2019-03-21T21:11:54.153Z,97.20
2019-03-21T21:14:23.120Z,97.20
2019-03-21T21:16:52.010Z,97.10
2019-03-21T21:19:23.587Z,97.20
2019-03-21T21:21:53.883Z,97.20
2019-03-21T21:24:23.797Z,97.20
2019-03-21T21:26:54.326Z,97.40
2019-03-21T21:29:23.216Z,97.40
2019-03-21T21:31:53.040Z,97.40
2019-03-21T21:34:24.579Z,97.50
2019-03-21T21:36:53.468Z,97.40
2019-03-21T21:39:23.385Z,97.40
2019-03-21T21:41:52.296Z,97.40
2019-03-21T21:44:22.041Z,97.30
2019-03-21T21:46:53.428Z,97.20
2019-03-21T21:49:24.449Z,97.20
2019-03-21T21:51:52.849Z,97.00
2019-03-21T21:54:21.843Z,97.00
2019-03-21T21:56:50.833Z,97.10
2019-03-21T21:59:19.721Z,97.00
2019-03-21T22:01:48.613Z,96.90
2019-03-21T22:04:22.108Z,96.80
2019-03-21T22:06:50.998Z,96.70
2019-03-21T22:09:19.892Z,96.70
2019-03-21T22:11:51.445Z,96.70
2019-03-21T22:14:27.394Z,96.60
2019-03-21T22:16:56.390Z,96.60
2019-03-21T22:19:25.281Z,96.40
2019-03-21T22:21:54.274Z,96.30
2019-03-21T22:24:23.158Z,96.30
2019-03-21T22:26:53.072Z,96.10
2019-03-21T22:29:21.965Z,96.00
2019-03-21T22:31:50.849Z,95.90
2019-03-21T22:34:19.740Z,95.80
2019-03-21T22:36:49.620Z,95.80
2019-03-21T22:39:18.860Z,95.80
2019-03-21T22:41:48.764Z,95.70
2019-03-21T22:44:18.576Z,95.60
2019-03-21T22:46:47.463Z,95.70
2019-03-21T22:49:16.558Z,95.50
2019-03-21T22:51:47.929Z,95.40
2019-03-21T22:54:21.480Z,95.30
2019-03-21T22:56:55.415Z,95.20
2019-03-21T22:59:29.729Z,95.20
2019-03-21T23:01:58.724Z,95.10
2019-03-21T23:04:30.573Z,95.10
2019-03-21T23:06:59.470Z,94.90
2019-03-21T23:09:34.613Z,94.90
2019-03-21T23:12:03.495Z,94.70
2019-03-21T23:14:32.488Z,94.70
2019-03-21T23:17:02.402Z,94.70
2019-03-21T23:19:34.988Z,94.40
2019-03-21T23:22:06.229Z,94.50
2019-03-21T23:24:35.111Z,94.50
2019-03-21T23:27:04.006Z,94.50
2019-03-21T23:29:32.997Z,94.40
2019-03-21T23:32:01.736Z,94.30
2019-03-21T23:34:32.409Z,94.40
2019-03-21T23:37:03.860Z,94.40
2019-03-21T23:39:35.309Z,93.90
2019-03-21T23:42:04.301Z,93.90
2019-03-21T23:44:33.213Z,93.90
2019-03-21T23:47:02.133Z,93.80
2019-03-21T23:49:31.072Z,93.70
2019-03-21T23:52:00.959Z,94.00
2019-03-21T23:54:29.876Z,94.10
2019-03-21T23:57:04.834Z,94.20
2019-03-21T23:59:32.262Z,94.30
